sensor_id;sensor_type;location;lat;lon;timestamp;pressure;altitude;pressure_sealevel;temperature;humidity
82668;BME280;72691;51.374;-0.176;2023-09-19T00:01:20;100502.24;;;10.84;62.47
82668;BME280;72691;51.374;-0.176;2023-09-19T00:03:45;100501.86;;;11.14;61.73
82668;BME280;72691;51.374;-0.176;2023-09-19T00:06:10;100504.55;;;10.89;62.27
82668;BME280;72691;51.374;-0.176;2023-09-19T00:08:36;100504.79;;;10.58;63.95
82668;BME280;72691;51.374;-0.176;2023-09-19T00:11:01;100511.56;;;10.53;63.24
82668;BME280;72691;51.374;-0.176;2023-09-19T00:13:26;100513.47;;;10.53;63.10
82668;BME280;72691;51.374;-0.176;2023-09-19T00:15:52;100509.67;;;10.76;62.63
82668;BME280;72691;51.374;-0.176;2023-09-19T00:18:17;100504.31;;;10.20;63.70
82668;BME280;72691;51.374;-0.176;2023-09-19T00:20:43;100519.84;;;10.71;62.64
82668;BME280;72691;51.374;-0.176;2023-09-19T00:23:08;100508.94;;;10.65;63.04
82668;BME280;72691;51.374;-0.176;2023-09-19T00:25:34;100502.30;;;10.71;62.14
82668;BME280;72691;51.374;-0.176;2023-09-19T00:27:59;100503.65;;;10.38;63.22
82668;BME280;72691;51.374;-0.176;2023-09-19T00:30:24;100502.53;;;11.22;61.64
82668;BME280;72691;51.374;-0.176;2023-09-19T00:32:51;100491.17;;;10.75;62.36
82668;BME280;72691;51.374;-0.176;2023-09-19T00:35:15;100492.39;;;10.99;60.84
82668;BME280;72691;51.374;-0.176;2023-09-19T00:37:41;100493.13;;;11.25;61.38
82668;BME280;72691;51.374;-0.176;2023-09-19T00:40:08;100491.90;;;11.21;60.21
82668;BME280;72691;51.374;-0.176;2023-09-19T00:42:32;100491.08;;;11.29;61.01
82668;BME280;72691;51.374;-0.176;2023-09-19T00:44:57;100498.00;;;10.82;62.17
82668;BME280;72691;51.374;-0.176;2023-09-19T00:47:23;100496.10;;;10.90;61.75
82668;BME280;72691;51.374;-0.176;2023-09-19T00:49:48;100506.56;;;10.72;62.16
82668;BME280;72691;51.374;-0.176;2023-09-19T00:52:13;100511.81;;;10.86;62.10
82668;BME280;72691;51.374;-0.176;2023-09-19T00:54:39;100510.00;;;10.95;61.79
82668;BME280;72691;51.374;-0.176;2023-09-19T00:57:04;100507.00;;;10.43;63.62
82668;BME280;72691;51.374;-0.176;2023-09-19T00:59:30;100517.82;;;11.05;61.45
82668;BME280;72691;51.374;-0.176;2023-09-19T01:01:56;100503.47;;;10.38;63.60
82668;BME280;72691;51.374;-0.176;2023-09-19T01:04:21;100505.40;;;10.36;63.06
82668;BME280;72691;51.374;-0.176;2023-09-19T01:06:46;100508.27;;;10.45;62.17
82668;BME280;72691;51.374;-0.176;2023-09-19T01:09:12;100515.66;;;10.72;63.05
82668;BME280;72691;51.374;-0.176;2023-09-19T01:11:40;100518.24;;;10.34;63.09
82668;BME280;72691;51.374;-0.176;2023-09-19T01:14:11;100518.26;;;10.95;61.69
82668;BME280;72691;51.374;-0.176;2023-09-19T01:16:35;100523.54;;;10.42;63.80
82668;BME280;72691;51.374;-0.176;2023-09-19T01:19:01;100517.16;;;10.50;63.22
82668;BME280;72691;51.374;-0.176;2023-09-19T01:21:26;100523.61;;;10.47;62.99
82668;BME280;72691;51.374;-0.176;2023-09-19T01:26:18;100519.49;;;10.67;62.16
82668;BME280;72691;51.374;-0.176;2023-09-19T01:31:02;100514.55;;;10.70;62.07
82668;BME280;72691;51.374;-0.176;2023-09-19T01:33:25;100517.24;;;10.51;63.00
82668;BME280;72691;51.374;-0.176;2023-09-19T01:35:51;100521.55;;;10.33;62.79
82668;BME280;72691;51.374;-0.176;2023-09-19T01:38:16;100525.89;;;10.41;63.81
82668;BME280;72691;51.374;-0.176;2023-09-19T01:40:43;100520.21;;;10.73;62.08
82668;BME280;72691;51.374;-0.176;2023-09-19T01:43:11;100521.13;;;11.03;61.13
82668;BME280;72691;51.374;-0.176;2023-09-19T01:45:37;100517.37;;;10.87;62.55
82668;BME280;72691;51.374;-0.176;2023-09-19T01:48:05;100513.30;;;10.90;61.02
82668;BME280;72691;51.374;-0.176;2023-09-19T01:50:30;100508.96;;;10.84;61.41
82668;BME280;72691;51.374;-0.176;2023-09-19T01:52:53;100505.67;;;10.40;62.24
82668;BME280;72691;51.374;-0.176;2023-09-19T01:55:16;100512.22;;;10.96;61.23
82668;BME280;72691;51.374;-0.176;2023-09-19T01:57:43;100513.95;;;11.11;61.01
82668;BME280;72691;51.374;-0.176;2023-09-19T02:00:10;100508.23;;;10.84;60.28
82668;BME280;72691;51.374;-0.176;2023-09-19T02:02:30;100528.86;;;10.58;61.88
82668;BME280;72691;51.374;-0.176;2023-09-19T02:04:56;100516.75;;;10.54;62.14
82668;BME280;72691;51.374;-0.176;2023-09-19T02:07:22;100507.64;;;10.19;62.93
82668;BME280;72691;51.374;-0.176;2023-09-19T02:09:47;100513.57;;;10.34;62.58
82668;BME280;72691;51.374;-0.176;2023-09-19T02:12:12;100523.32;;;11.09;61.11
82668;BME280;72691;51.374;-0.176;2023-09-19T02:14:37;100515.23;;;10.74;61.86
82668;BME280;72691;51.374;-0.176;2023-09-19T02:17:03;100521.09;;;10.34;63.78
82668;BME280;72691;51.374;-0.176;2023-09-19T02:19:28;100521.17;;;10.27;63.12
82668;BME280;72691;51.374;-0.176;2023-09-19T02:21:53;100521.97;;;10.46;62.72
82668;BME280;72691;51.374;-0.176;2023-09-19T02:24:19;100524.14;;;10.25;62.01
82668;BME280;72691;51.374;-0.176;2023-09-19T02:26:44;100528.72;;;11.04;60.97
82668;BME280;72691;51.374;-0.176;2023-09-19T02:29:10;100528.77;;;11.06;61.03
82668;BME280;72691;51.374;-0.176;2023-09-19T02:31:35;100531.59;;;10.92;61.55
82668;BME280;72691;51.374;-0.176;2023-09-19T02:34:00;100536.60;;;10.93;61.40
82668;BME280;72691;51.374;-0.176;2023-09-19T02:36:26;100532.73;;;11.73;59.79
82668;BME280;72691;51.374;-0.176;2023-09-19T02:38:51;100538.27;;;11.42;60.62
82668;BME280;72691;51.374;-0.176;2023-09-19T02:41:17;100534.96;;;11.32;59.66
82668;BME280;72691;51.374;-0.176;2023-09-19T02:43:42;100533.52;;;11.41;60.04
82668;BME280;72691;51.374;-0.176;2023-09-19T02:46:08;100533.16;;;10.62;61.28
82668;BME280;72691;51.374;-0.176;2023-09-19T02:48:33;100528.19;;;10.75;62.75
82668;BME280;72691;51.374;-0.176;2023-09-19T02:50:58;100529.14;;;10.79;62.26
82668;BME280;72691;51.374;-0.176;2023-09-19T02:53:24;100534.58;;;11.20;61.90
82668;BME280;72691;51.374;-0.176;2023-09-19T02:55:49;100528.74;;;10.64;61.02
82668;BME280;72691;51.374;-0.176;2023-09-19T02:58:15;100525.95;;;10.82;61.96
82668;BME280;72691;51.374;-0.176;2023-09-19T03:00:41;100516.79;;;11.34;60.96
82668;BME280;72691;51.374;-0.176;2023-09-19T03:03:06;100510.06;;;11.05;60.72
82668;BME280;72691;51.374;-0.176;2023-09-19T03:05:31;100509.77;;;10.85;62.11
82668;BME280;72691;51.374;-0.176;2023-09-19T03:07:57;100506.50;;;11.61;59.01
82668;BME280;72691;51.374;-0.176;2023-09-19T03:10:22;100508.55;;;10.63;61.26
82668;BME280;72691;51.374;-0.176;2023-09-19T03:12:48;100510.26;;;10.97;62.02
82668;BME280;72691;51.374;-0.176;2023-09-19T03:15:13;100508.73;;;11.33;59.58
82668;BME280;72691;51.374;-0.176;2023-09-19T03:17:43;100513.50;;;10.50;61.70
82668;BME280;72691;51.374;-0.176;2023-09-19T03:20:04;100514.28;;;11.00;61.19
82668;BME280;72691;51.374;-0.176;2023-09-19T03:22:29;100508.89;;;11.30;61.03
82668;BME280;72691;51.374;-0.176;2023-09-19T03:24:54;100510.27;;;10.81;61.99
82668;BME280;72691;51.374;-0.176;2023-09-19T03:27:20;100503.79;;;10.78;62.33
82668;BME280;72691;51.374;-0.176;2023-09-19T03:29:45;100503.13;;;11.24;62.47
82668;BME280;72691;51.374;-0.176;2023-09-19T03:32:11;100504.69;;;10.94;62.07
82668;BME280;72691;51.374;-0.176;2023-09-19T03:34:37;100502.65;;;11.04;60.82
82668;BME280;72691;51.374;-0.176;2023-09-19T03:37:02;100506.55;;;10.85;62.34
82668;BME280;72691;51.374;-0.176;2023-09-19T03:39:28;100506.79;;;11.08;61.42
82668;BME280;72691;51.374;-0.176;2023-09-19T03:41:53;100501.03;;;11.14;61.46
82668;BME280;72691;51.374;-0.176;2023-09-19T03:44:18;100502.49;;;10.93;62.16
82668;BME280;72691;51.374;-0.176;2023-09-19T03:46:44;100497.84;;;11.10;62.57
82668;BME280;72691;51.374;-0.176;2023-09-19T03:49:09;100494.03;;;11.15;61.67
82668;BME280;72691;51.374;-0.176;2023-09-19T03:51:35;100488.48;;;10.79;62.63
82668;BME280;72691;51.374;-0.176;2023-09-19T03:54:00;100489.37;;;11.90;61.51
82668;BME280;72691;51.374;-0.176;2023-09-19T03:56:25;100484.65;;;10.87;62.89
82668;BME280;72691;51.374;-0.176;2023-09-19T03:58:51;100473.91;;;12.03;60.62
82668;BME280;72691;51.374;-0.176;2023-09-19T04:01:16;100468.22;;;11.98;61.28
82668;BME280;72691;51.374;-0.176;2023-09-19T04:03:42;100463.45;;;11.56;62.41
82668;BME280;72691;51.374;-0.176;2023-09-19T04:06:07;100457.92;;;11.13;63.59
82668;BME280;72691;51.374;-0.176;2023-09-19T04:08:32;100453.91;;;11.71;61.89
82668;BME280;72691;51.374;-0.176;2023-09-19T04:10:57;100453.25;;;11.46;63.09
82668;BME280;72691;51.374;-0.176;2023-09-19T04:13:22;100443.48;;;11.24;63.24
82668;BME280;72691;51.374;-0.176;2023-09-19T04:15:48;100439.83;;;11.46;63.30
82668;BME280;72691;51.374;-0.176;2023-09-19T04:18:13;100436.62;;;11.29;63.38
82668;BME280;72691;51.374;-0.176;2023-09-19T04:20:38;100438.82;;;11.29;63.54
82668;BME280;72691;51.374;-0.176;2023-09-19T04:23:04;100436.98;;;11.78;63.26
82668;BME280;72691;51.374;-0.176;2023-09-19T04:25:29;100438.10;;;11.16;65.29
82668;BME280;72691;51.374;-0.176;2023-09-19T04:27:54;100431.78;;;10.97;64.90
82668;BME280;72691;51.374;-0.176;2023-09-19T04:30:20;100427.38;;;10.87;65.05
82668;BME280;72691;51.374;-0.176;2023-09-19T04:32:45;100420.11;;;11.22;65.20
82668;BME280;72691;51.374;-0.176;2023-09-19T04:35:11;100418.41;;;11.12;66.08
82668;BME280;72691;51.374;-0.176;2023-09-19T04:37:37;100412.53;;;11.25;65.32
82668;BME280;72691;51.374;-0.176;2023-09-19T04:40:01;100413.76;;;11.64;64.44
82668;BME280;72691;51.374;-0.176;2023-09-19T04:42:26;100400.16;;;11.87;63.46
82668;BME280;72691;51.374;-0.176;2023-09-19T04:44:52;100400.66;;;11.01;64.17
82668;BME280;72691;51.374;-0.176;2023-09-19T04:47:17;100408.50;;;10.98;65.18
82668;BME280;72691;51.374;-0.176;2023-09-19T04:49:42;100407.50;;;11.57;64.96
82668;BME280;72691;51.374;-0.176;2023-09-19T04:52:08;100410.12;;;11.53;64.50
82668;BME280;72691;51.374;-0.176;2023-09-19T04:54:33;100414.81;;;11.03;64.69
82668;BME280;72691;51.374;-0.176;2023-09-19T04:56:59;100410.88;;;11.37;65.58
82668;BME280;72691;51.374;-0.176;2023-09-19T04:59:24;100407.49;;;11.35;65.25
82668;BME280;72691;51.374;-0.176;2023-09-19T05:01:50;100406.77;;;11.69;64.03
82668;BME280;72691;51.374;-0.176;2023-09-19T05:04:16;100411.20;;;11.39;65.16
82668;BME280;72691;51.374;-0.176;2023-09-19T05:06:41;100417.22;;;11.57;64.42
82668;BME280;72691;51.374;-0.176;2023-09-19T05:09:06;100415.22;;;11.64;64.28
82668;BME280;72691;51.374;-0.176;2023-09-19T05:11:32;100422.63;;;11.04;65.73
82668;BME280;72691;51.374;-0.176;2023-09-19T05:13:57;100423.14;;;11.30;65.21
82668;BME280;72691;51.374;-0.176;2023-09-19T05:16:23;100423.58;;;11.32;65.12
82668;BME280;72691;51.374;-0.176;2023-09-19T05:18:48;100427.93;;;11.73;64.10
82668;BME280;72691;51.374;-0.176;2023-09-19T05:21:14;100428.43;;;11.58;65.04
82668;BME280;72691;51.374;-0.176;2023-09-19T05:23:39;100432.54;;;10.66;66.94
82668;BME280;72691;51.374;-0.176;2023-09-19T05:26:04;100426.19;;;11.91;64.16
82668;BME280;72691;51.374;-0.176;2023-09-19T05:28:30;100422.79;;;11.75;63.94
82668;BME280;72691;51.374;-0.176;2023-09-19T05:30:55;100424.24;;;11.69;63.70
82668;BME280;72691;51.374;-0.176;2023-09-19T05:33:20;100426.20;;;11.66;63.86
82668;BME280;72691;51.374;-0.176;2023-09-19T05:35:45;100422.29;;;11.71;63.98
82668;BME280;72691;51.374;-0.176;2023-09-19T05:38:11;100428.18;;;11.22;66.61
82668;BME280;72691;51.374;-0.176;2023-09-19T05:40:36;100422.05;;;11.91;64.72
82668;BME280;72691;51.374;-0.176;2023-09-19T05:43:02;100419.36;;;12.15;65.48
82668;BME280;72691;51.374;-0.176;2023-09-19T05:45:27;100422.89;;;11.62;67.66
82668;BME280;72691;51.374;-0.176;2023-09-19T05:47:53;100412.10;;;11.19;66.56
82668;BME280;72691;51.374;-0.176;2023-09-19T05:50:18;100402.62;;;11.92;65.85
82668;BME280;72691;51.374;-0.176;2023-09-19T05:52:43;100396.03;;;11.64;67.23
82668;BME280;72691;51.374;-0.176;2023-09-19T05:55:08;100395.02;;;12.02;65.41
82668;BME280;72691;51.374;-0.176;2023-09-19T05:57:34;100392.62;;;12.66;63.88
82668;BME280;72691;51.374;-0.176;2023-09-19T05:59:59;100396.31;;;11.92;65.62
82668;BME280;72691;51.374;-0.176;2023-09-19T06:02:24;100388.48;;;12.31;66.31
82668;BME280;72691;51.374;-0.176;2023-09-19T06:04:50;100385.48;;;11.84;66.32
82668;BME280;72691;51.374;-0.176;2023-09-19T06:07:15;100383.39;;;11.84;67.64
82668;BME280;72691;51.374;-0.176;2023-09-19T06:09:40;100384.06;;;11.99;67.99
82668;BME280;72691;51.374;-0.176;2023-09-19T06:12:06;100388.99;;;12.09;67.34
82668;BME280;72691;51.374;-0.176;2023-09-19T06:14:31;100382.88;;;12.42;65.34
82668;BME280;72691;51.374;-0.176;2023-09-19T06:16:56;100380.11;;;12.07;67.61
82668;BME280;72691;51.374;-0.176;2023-09-19T06:19:22;100376.71;;;12.29;67.60
82668;BME280;72691;51.374;-0.176;2023-09-19T06:21:47;100379.88;;;12.53;67.19
82668;BME280;72691;51.374;-0.176;2023-09-19T06:24:13;100377.71;;;12.14;69.26
82668;BME280;72691;51.374;-0.176;2023-09-19T06:26:38;100377.41;;;12.10;69.64
82668;BME280;72691;51.374;-0.176;2023-09-19T06:29:03;100382.45;;;11.77;71.90
82668;BME280;72691;51.374;-0.176;2023-09-19T06:31:29;100377.87;;;12.15;70.47
82668;BME280;72691;51.374;-0.176;2023-09-19T06:33:54;100376.41;;;11.51;72.31
82668;BME280;72691;51.374;-0.176;2023-09-19T06:36:19;100371.14;;;12.00;71.30
82668;BME280;72691;51.374;-0.176;2023-09-19T06:38:45;100369.73;;;11.99;70.69
82668;BME280;72691;51.374;-0.176;2023-09-19T06:41:10;100367.18;;;12.14;71.01
82668;BME280;72691;51.374;-0.176;2023-09-19T06:43:36;100363.13;;;11.81;72.65
82668;BME280;72691;51.374;-0.176;2023-09-19T06:46:01;100363.44;;;12.01;71.55
82668;BME280;72691;51.374;-0.176;2023-09-19T06:48:27;100357.79;;;11.96;72.41
82668;BME280;72691;51.374;-0.176;2023-09-19T06:50:53;100359.23;;;11.60;72.79
82668;BME280;72691;51.374;-0.176;2023-09-19T06:53:18;100355.64;;;12.30;72.51
82668;BME280;72691;51.374;-0.176;2023-09-19T06:55:43;100353.58;;;12.45;71.11
82668;BME280;72691;51.374;-0.176;2023-09-19T06:58:08;100349.81;;;12.67;69.38
82668;BME280;72691;51.374;-0.176;2023-09-19T07:00:34;100346.83;;;12.81;69.70
82668;BME280;72691;51.374;-0.176;2023-09-19T07:03:00;100347.27;;;12.60;70.95
82668;BME280;72691;51.374;-0.176;2023-09-19T07:05:25;100340.89;;;12.39;70.23
82668;BME280;72691;51.374;-0.176;2023-09-19T07:07:50;100336.53;;;12.37;70.37
82668;BME280;72691;51.374;-0.176;2023-09-19T07:10:16;100327.12;;;12.40;70.29
82668;BME280;72691;51.374;-0.176;2023-09-19T07:12:41;100326.32;;;12.86;69.97
82668;BME280;72691;51.374;-0.176;2023-09-19T07:15:07;100319.91;;;13.12;69.25
82668;BME280;72691;51.374;-0.176;2023-09-19T07:17:32;100315.03;;;12.79;70.36
82668;BME280;72691;51.374;-0.176;2023-09-19T07:19:57;100309.47;;;12.59;70.27
82668;BME280;72691;51.374;-0.176;2023-09-19T07:22:22;100315.67;;;13.14;69.51
82668;BME280;72691;51.374;-0.176;2023-09-19T07:24:48;100305.25;;;12.73;69.27
82668;BME280;72691;51.374;-0.176;2023-09-19T07:27:13;100303.80;;;13.12;68.27
82668;BME280;72691;51.374;-0.176;2023-09-19T07:29:38;100304.68;;;12.94;68.12
82668;BME280;72691;51.374;-0.176;2023-09-19T07:32:04;100306.34;;;13.10;67.55
82668;BME280;72691;51.374;-0.176;2023-09-19T07:34:29;100299.69;;;12.94;67.92
82668;BME280;72691;51.374;-0.176;2023-09-19T07:36:55;100301.60;;;12.97;68.21
82668;BME280;72691;51.374;-0.176;2023-09-19T07:39:20;100307.50;;;13.22;68.48
82668;BME280;72691;51.374;-0.176;2023-09-19T07:41:45;100300.68;;;13.37;68.43
82668;BME280;72691;51.374;-0.176;2023-09-19T07:44:11;100306.15;;;13.22;67.88
82668;BME280;72691;51.374;-0.176;2023-09-19T07:46:36;100287.63;;;12.96;69.64
82668;BME280;72691;51.374;-0.176;2023-09-19T07:49:02;100294.48;;;12.82;70.51
82668;BME280;72691;51.374;-0.176;2023-09-19T07:51:27;100294.50;;;13.19;70.36
82668;BME280;72691;51.374;-0.176;2023-09-19T07:53:52;100292.42;;;12.77;69.80
82668;BME280;72691;51.374;-0.176;2023-09-19T07:56:18;100287.58;;;13.26;69.29
82668;BME280;72691;51.374;-0.176;2023-09-19T07:58:43;100291.83;;;13.12;69.69
82668;BME280;72691;51.374;-0.176;2023-09-19T08:01:10;100292.38;;;13.51;67.87
82668;BME280;72691;51.374;-0.176;2023-09-19T08:03:34;100297.98;;;12.88;70.28
82668;BME280;72691;51.374;-0.176;2023-09-19T08:05:59;100297.50;;;13.15;68.90
82668;BME280;72691;51.374;-0.176;2023-09-19T08:08:25;100287.82;;;13.12;69.55
82668;BME280;72691;51.374;-0.176;2023-09-19T08:10:53;100290.70;;;12.54;70.17
82668;BME280;72691;51.374;-0.176;2023-09-19T08:13:20;100290.28;;;13.12;70.26
82668;BME280;72691;51.374;-0.176;2023-09-19T08:15:43;100291.94;;;12.95;70.05
82668;BME280;72691;51.374;-0.176;2023-09-19T08:18:06;100296.94;;;12.91;70.78
82668;BME280;72691;51.374;-0.176;2023-09-19T08:20:31;100291.99;;;13.39;69.18
82668;BME280;72691;51.374;-0.176;2023-09-19T08:22:56;100285.34;;;13.00;71.33
82668;BME280;72691;51.374;-0.176;2023-09-19T08:25:22;100297.28;;;12.54;73.73
82668;BME280;72691;51.374;-0.176;2023-09-19T08:27:47;100290.26;;;12.20;75.34
82668;BME280;72691;51.374;-0.176;2023-09-19T08:30:13;100289.93;;;12.78;73.30
82668;BME280;72691;51.374;-0.176;2023-09-19T08:32:38;100286.37;;;12.57;74.09
82668;BME280;72691;51.374;-0.176;2023-09-19T08:35:04;100293.66;;;13.06;72.55
82668;BME280;72691;51.374;-0.176;2023-09-19T08:37:28;100286.72;;;12.80;72.12
82668;BME280;72691;51.374;-0.176;2023-09-19T08:39:53;100292.40;;;13.47;70.14
82668;BME280;72691;51.374;-0.176;2023-09-19T08:42:19;100291.84;;;13.33;70.05
82668;BME280;72691;51.374;-0.176;2023-09-19T08:44:44;100283.09;;;13.43;69.58
82668;BME280;72691;51.374;-0.176;2023-09-19T08:47:10;100280.67;;;13.58;68.90
82668;BME280;72691;51.374;-0.176;2023-09-19T08:49:41;100275.93;;;13.45;68.62
82668;BME280;72691;51.374;-0.176;2023-09-19T08:52:06;100272.69;;;13.88;67.14
82668;BME280;72691;51.374;-0.176;2023-09-19T08:54:30;100288.83;;;13.68;68.02
82668;BME280;72691;51.374;-0.176;2023-09-19T08:56:51;100288.32;;;13.54;67.45
82668;BME280;72691;51.374;-0.176;2023-09-19T08:59:16;100291.53;;;14.16;66.12
82668;BME280;72691;51.374;-0.176;2023-09-19T09:01:42;100296.77;;;14.43;65.47
82668;BME280;72691;51.374;-0.176;2023-09-19T09:04:08;100294.84;;;13.90;66.46
82668;BME280;72691;51.374;-0.176;2023-09-19T09:06:32;100285.50;;;13.66;66.61
82668;BME280;72691;51.374;-0.176;2023-09-19T09:08:58;100275.95;;;13.86;65.80
82668;BME280;72691;51.374;-0.176;2023-09-19T09:11:22;100280.70;;;14.11;66.70
82668;BME280;72691;51.374;-0.176;2023-09-19T09:13:48;100279.55;;;14.18;65.33
82668;BME280;72691;51.374;-0.176;2023-09-19T09:16:14;100290.90;;;13.76;65.77
82668;BME280;72691;51.374;-0.176;2023-09-19T09:18:39;100291.92;;;13.68;65.94
82668;BME280;72691;51.374;-0.176;2023-09-19T09:21:04;100283.33;;;14.09;65.09
82668;BME280;72691;51.374;-0.176;2023-09-19T09:23:30;100285.64;;;14.20;64.70
82668;BME280;72691;51.374;-0.176;2023-09-19T09:25:55;100279.44;;;14.29;64.64
82668;BME280;72691;51.374;-0.176;2023-09-19T09:28:21;100277.76;;;14.16;64.26
82668;BME280;72691;51.374;-0.176;2023-09-19T09:30:45;100289.13;;;14.10;64.63
82668;BME280;72691;51.374;-0.176;2023-09-19T09:33:11;100280.73;;;14.12;64.98
82668;BME280;72691;51.374;-0.176;2023-09-19T09:35:36;100298.54;;;14.47;63.86
82668;BME280;72691;51.374;-0.176;2023-09-19T09:38:01;100290.86;;;14.26;65.22
82668;BME280;72691;51.374;-0.176;2023-09-19T09:40:36;100282.59;;;14.26;64.09
82668;BME280;72691;51.374;-0.176;2023-09-19T09:42:52;100276.23;;;14.09;64.00
82668;BME280;72691;51.374;-0.176;2023-09-19T09:45:19;100297.27;;;14.31;63.93
82668;BME280;72691;51.374;-0.176;2023-09-19T09:47:45;100286.36;;;14.42;63.35
82668;BME280;72691;51.374;-0.176;2023-09-19T09:50:09;100291.81;;;14.24;63.43
82668;BME280;72691;51.374;-0.176;2023-09-19T09:52:45;100286.34;;;14.08;63.26
82668;BME280;72691;51.374;-0.176;2023-09-19T09:55:00;100298.67;;;14.18;63.76
82668;BME280;72691;51.374;-0.176;2023-09-19T09:57:25;100297.87;;;15.03;63.25
82668;BME280;72691;51.374;-0.176;2023-09-19T09:59:51;100282.96;;;14.64;62.97
82668;BME280;72691;51.374;-0.176;2023-09-19T10:02:17;100278.43;;;14.26;62.98
82668;BME280;72691;51.374;-0.176;2023-09-19T10:04:41;100296.06;;;14.01;64.29
82668;BME280;72691;51.374;-0.176;2023-09-19T10:07:07;100268.00;;;14.43;62.82
82668;BME280;72691;51.374;-0.176;2023-09-19T10:12:05;100277.85;;;14.04;63.33
82668;BME280;72691;51.374;-0.176;2023-09-19T10:14:26;100284.05;;;13.91;64.16
82668;BME280;72691;51.374;-0.176;2023-09-19T10:16:49;100291.57;;;14.24;63.18
82668;BME280;72691;51.374;-0.176;2023-09-19T10:19:20;100274.15;;;14.23;63.97
82668;BME280;72691;51.374;-0.176;2023-09-19T10:21:39;100296.98;;;14.31;63.85
82668;BME280;72691;51.374;-0.176;2023-09-19T10:24:05;100273.32;;;14.62;63.28
82668;BME280;72691;51.374;-0.176;2023-09-19T10:26:31;100276.86;;;14.55;63.62
82668;BME280;72691;51.374;-0.176;2023-09-19T10:28:56;100268.61;;;14.72;63.02
82668;BME280;72691;51.374;-0.176;2023-09-19T10:31:21;100269.55;;;15.05;62.35
82668;BME280;72691;51.374;-0.176;2023-09-19T10:33:46;100278.21;;;14.90;62.61
82668;BME280;72691;51.374;-0.176;2023-09-19T10:36:11;100269.46;;;15.14;62.87
82668;BME280;72691;51.374;-0.176;2023-09-19T10:38:39;100261.73;;;15.33;61.42
82668;BME280;72691;51.374;-0.176;2023-09-19T10:41:02;100260.41;;;14.88;62.66
82668;BME280;72691;51.374;-0.176;2023-09-19T10:43:30;100260.01;;;15.54;61.11
82668;BME280;72691;51.374;-0.176;2023-09-19T10:45:54;100265.17;;;15.44;61.32
82668;BME280;72691;51.374;-0.176;2023-09-19T10:48:19;100278.47;;;14.89;62.70
82668;BME280;72691;51.374;-0.176;2023-09-19T10:50:48;100274.56;;;15.03;63.03
82668;BME280;72691;51.374;-0.176;2023-09-19T10:53:09;100268.20;;;15.11;63.05
82668;BME280;72691;51.374;-0.176;2023-09-19T10:55:35;100256.94;;;15.03;62.57
82668;BME280;72691;51.374;-0.176;2023-09-19T10:58:00;100269.68;;;14.79;63.63
82668;BME280;72691;51.374;-0.176;2023-09-19T11:00:25;100261.43;;;14.95;63.92
82668;BME280;72691;51.374;-0.176;2023-09-19T11:05:16;100266.63;;;14.99;63.14
82668;BME280;72691;51.374;-0.176;2023-09-19T11:07:57;100260.14;;;15.16;63.42
82668;BME280;72691;51.374;-0.176;2023-09-19T11:10:07;100264.27;;;15.62;62.06
82668;BME280;72691;51.374;-0.176;2023-09-19T11:14:57;100276.60;;;15.22;64.48
82668;BME280;72691;51.374;-0.176;2023-09-19T11:17:32;100271.98;;;15.16;63.40
82668;BME280;72691;51.374;-0.176;2023-09-19T11:22:17;100261.52;;;14.32;65.46
82668;BME280;72691;51.374;-0.176;2023-09-19T11:24:42;100264.90;;;15.09;64.92
82668;BME280;72691;51.374;-0.176;2023-09-19T11:27:13;100266.60;;;15.19;64.60
82668;BME280;72691;51.374;-0.176;2023-09-19T11:29:32;100278.09;;;14.97;63.84
82668;BME280;72691;51.374;-0.176;2023-09-19T11:31:58;100259.12;;;14.98;64.74
82668;BME280;72691;51.374;-0.176;2023-09-19T11:36:49;100264.63;;;15.07;64.41
82668;BME280;72691;51.374;-0.176;2023-09-19T11:41:40;100270.47;;;14.73;66.39
82668;BME280;72691;51.374;-0.176;2023-09-19T11:46:30;100264.08;;;14.81;65.92
82668;BME280;72691;51.374;-0.176;2023-09-19T11:49:05;100260.62;;;14.83;65.56
82668;BME280;72691;51.374;-0.176;2023-09-19T11:51:22;100266.74;;;14.55;67.04
82668;BME280;72691;51.374;-0.176;2023-09-19T11:53:46;100276.13;;;14.34;68.70
82668;BME280;72691;51.374;-0.176;2023-09-19T11:56:11;100268.22;;;14.47;68.61
82668;BME280;72691;51.374;-0.176;2023-09-19T11:58:37;100267.56;;;14.90;67.61
82668;BME280;72691;51.374;-0.176;2023-09-19T12:01:02;100271.04;;;14.29;68.17
82668;BME280;72691;51.374;-0.176;2023-09-19T12:03:29;100260.71;;;14.54;68.64
82668;BME280;72691;51.374;-0.176;2023-09-19T12:05:53;100261.78;;;14.53;67.46
82668;BME280;72691;51.374;-0.176;2023-09-19T12:08:18;100266.11;;;14.33;67.88
82668;BME280;72691;51.374;-0.176;2023-09-19T12:10:46;100265.26;;;14.56;68.04
82668;BME280;72691;51.374;-0.176;2023-09-19T12:13:09;100259.86;;;14.47;68.14
82668;BME280;72691;51.374;-0.176;2023-09-19T12:15:34;100271.77;;;14.68;68.54
82668;BME280;72691;51.374;-0.176;2023-09-19T12:18:00;100268.81;;;15.09;66.24
82668;BME280;72691;51.374;-0.176;2023-09-19T12:20:25;100266.42;;;14.74;67.83
82668;BME280;72691;51.374;-0.176;2023-09-19T12:22:50;100260.80;;;14.78;66.70
82668;BME280;72691;51.374;-0.176;2023-09-19T12:25:16;100265.58;;;14.62;67.66
82668;BME280;72691;51.374;-0.176;2023-09-19T12:27:42;100262.07;;;14.36;68.54
82668;BME280;72691;51.374;-0.176;2023-09-19T12:30:07;100265.65;;;14.72;68.25
82668;BME280;72691;51.374;-0.176;2023-09-19T12:32:35;100259.86;;;14.24;69.45
82668;BME280;72691;51.374;-0.176;2023-09-19T12:34:57;100265.30;;;14.64;68.39
82668;BME280;72691;51.374;-0.176;2023-09-19T12:37:23;100264.86;;;14.55;68.30
82668;BME280;72691;51.374;-0.176;2023-09-19T12:39:49;100259.67;;;15.12;67.17
82668;BME280;72691;51.374;-0.176;2023-09-19T12:42:13;100262.08;;;14.88;68.76
82668;BME280;72691;51.374;-0.176;2023-09-19T12:44:41;100249.80;;;15.12;67.66
82668;BME280;72691;51.374;-0.176;2023-09-19T12:47:10;100255.68;;;14.52;68.41
82668;BME280;72691;51.374;-0.176;2023-09-19T12:49:29;100240.30;;;14.75;70.17
82668;BME280;72691;51.374;-0.176;2023-09-19T12:51:55;100248.73;;;14.48;70.39